sensor_id;sensor_type;location;lat;lon;timestamp;P1;durP1;ratioP1;P2;durP2;ratioP2
43744;SDS011;29359;53.048;8.732;2023-09-12T00:01:00;50.88;;;32.53;;
43744;SDS011;29359;53.048;8.732;2023-09-12T00:03:06;52.17;;;32.08;;
43744;SDS011;29359;53.048;8.732;2023-09-12T00:05:08;66.97;;;33.63;;
43744;SDS011;29359;53.048;8.732;2023-09-12T00:07:10;54.92;;;33.72;;
43744;SDS011;29359;53.048;8.732;2023-09-12T00:09:12;60.05;;;34.63;;
43744;SDS011;29359;53.048;8.732;2023-09-12T00:11:14;53.60;;;32.97;;
43744;SDS011;29359;53.048;8.732;2023-09-12T00:13:15;54.75;;;33.03;;
43744;SDS011;29359;53.048;8.732;2023-09-12T00:15:17;57.38;;;33.30;;
43744;SDS011;29359;53.048;8.732;2023-09-12T00:17:21;61.40;;;34.03;;
43744;SDS011;29359;53.048;8.732;2023-09-12T00:19:23;58.28;;;33.45;;
43744;SDS011;29359;53.048;8.732;2023-09-12T00:21:24;55.30;;;33.88;;
43744;SDS011;29359;53.048;8.732;2023-09-12T00:23:27;57.70;;;33.70;;
43744;SDS011;29359;53.048;8.732;2023-09-12T00:25:28;54.08;;;33.97;;
43744;SDS011;29359;53.048;8.732;2023-09-12T00:27:30;57.20;;;34.40;;
43744;SDS011;29359;53.048;8.732;2023-09-12T00:29:32;61.42;;;34.28;;
43744;SDS011;29359;53.048;8.732;2023-09-12T00:31:34;57.00;;;33.60;;
43744;SDS011;29359;53.048;8.732;2023-09-12T00:33:36;52.28;;;33.60;;
43744;SDS011;29359;53.048;8.732;2023-09-12T00:35:38;54.35;;;34.50;;
43744;SDS011;29359;53.048;8.732;2023-09-12T00:37:40;56.38;;;33.97;;
43744;SDS011;29359;53.048;8.732;2023-09-12T00:39:41;58.38;;;34.40;;
43744;SDS011;29359;53.048;8.732;2023-09-12T00:41:43;65.60;;;36.25;;
43744;SDS011;29359;53.048;8.732;2023-09-12T00:43:45;59.92;;;36.67;;
43744;SDS011;29359;53.048;8.732;2023-09-12T00:45:47;59.38;;;36.47;;
43744;SDS011;29359;53.048;8.732;2023-09-12T00:47:49;58.03;;;35.35;;
43744;SDS011;29359;53.048;8.732;2023-09-12T00:49:52;68.00;;;37.13;;
43744;SDS011;29359;53.048;8.732;2023-09-12T00:51:57;60.38;;;35.85;;
43744;SDS011;29359;53.048;8.732;2023-09-12T00:54:00;63.45;;;36.00;;
43744;SDS011;29359;53.048;8.732;2023-09-12T00:56:02;61.63;;;37.65;;
43744;SDS011;29359;53.048;8.732;2023-09-12T00:58:04;58.95;;;35.97;;
43744;SDS011;29359;53.048;8.732;2023-09-12T01:00:06;59.28;;;35.67;;
43744;SDS011;29359;53.048;8.732;2023-09-12T01:02:12;59.25;;;35.95;;
43744;SDS011;29359;53.048;8.732;2023-09-12T01:04:14;63.33;;;36.45;;
43744;SDS011;29359;53.048;8.732;2023-09-12T01:06:34;58.58;;;36.67;;
43744;SDS011;29359;53.048;8.732;2023-09-12T01:08:36;57.10;;;36.38;;
43744;SDS011;29359;53.048;8.732;2023-09-12T01:10:39;55.40;;;36.10;;
43744;SDS011;29359;53.048;8.732;2023-09-12T01:12:46;55.10;;;35.97;;
43744;SDS011;29359;53.048;8.732;2023-09-12T01:14:47;51.75;;;34.45;;
43744;SDS011;29359;53.048;8.732;2023-09-12T01:16:50;51.92;;;34.88;;
43744;SDS011;29359;53.048;8.732;2023-09-12T01:18:52;61.42;;;35.45;;
43744;SDS011;29359;53.048;8.732;2023-09-12T01:21:13;55.20;;;34.47;;
43744;SDS011;29359;53.048;8.732;2023-09-12T01:23:34;56.85;;;34.45;;
43744;SDS011;29359;53.048;8.732;2023-09-12T01:28:29;46.22;;;32.08;;
43744;SDS011;29359;53.048;8.732;2023-09-12T01:30:32;51.50;;;34.03;;
43744;SDS011;29359;53.048;8.732;2023-09-12T01:32:37;51.10;;;34.10;;
43744;SDS011;29359;53.048;8.732;2023-09-12T01:34:40;53.55;;;34.47;;
43744;SDS011;29359;53.048;8.732;2023-09-12T01:36:41;54.35;;;33.38;;
43744;SDS011;29359;53.048;8.732;2023-09-12T01:38:43;58.65;;;34.55;;
43744;SDS011;29359;53.048;8.732;2023-09-12T01:40:51;49.13;;;34.35;;
43744;SDS011;29359;53.048;8.732;2023-09-12T01:52:38;48.97;;;34.55;;
43744;SDS011;29359;53.048;8.732;2023-09-12T01:55:17;52.30;;;33.15;;
43744;SDS011;29359;53.048;8.732;2023-09-12T01:57:31;50.42;;;32.35;;
43744;SDS011;29359;53.048;8.732;2023-09-12T01:59:34;48.25;;;32.05;;
43744;SDS011;29359;53.048;8.732;2023-09-12T02:01:36;53.15;;;32.00;;
43744;SDS011;29359;53.048;8.732;2023-09-12T02:03:38;53.63;;;33.00;;
43744;SDS011;29359;53.048;8.732;2023-09-12T02:05:40;55.00;;;32.85;;
43744;SDS011;29359;53.048;8.732;2023-09-12T02:07:42;50.97;;;31.92;;
43744;SDS011;29359;53.048;8.732;2023-09-12T02:09:43;51.15;;;34.58;;
43744;SDS011;29359;53.048;8.732;2023-09-12T02:11:45;51.28;;;34.47;;
43744;SDS011;29359;53.048;8.732;2023-09-12T02:13:47;47.08;;;33.58;;
43744;SDS011;29359;53.048;8.732;2023-09-12T02:15:49;50.47;;;33.78;;
43744;SDS011;29359;53.048;8.732;2023-09-12T02:17:51;50.13;;;34.25;;
43744;SDS011;29359;53.048;8.732;2023-09-12T02:19:53;53.30;;;34.60;;
43744;SDS011;29359;53.048;8.732;2023-09-12T02:21:55;48.45;;;34.40;;
43744;SDS011;29359;53.048;8.732;2023-09-12T02:23:57;51.55;;;33.13;;
43744;SDS011;29359;53.048;8.732;2023-09-12T02:25:58;48.90;;;33.35;;
43744;SDS011;29359;53.048;8.732;2023-09-12T02:28:00;49.15;;;32.85;;
43744;SDS011;29359;53.048;8.732;2023-09-12T02:30:02;47.78;;;33.88;;
43744;SDS011;29359;53.048;8.732;2023-09-12T02:32:05;52.65;;;32.30;;
43744;SDS011;29359;53.048;8.732;2023-09-12T02:34:07;44.65;;;32.15;;
43744;SDS011;29359;53.048;8.732;2023-09-12T02:36:09;47.63;;;32.53;;
43744;SDS011;29359;53.048;8.732;2023-09-12T02:38:10;41.33;;;31.75;;
43744;SDS011;29359;53.048;8.732;2023-09-12T02:40:12;46.13;;;32.33;;
43744;SDS011;29359;53.048;8.732;2023-09-12T02:42:16;48.30;;;31.98;;
43744;SDS011;29359;53.048;8.732;2023-09-12T02:44:17;49.55;;;34.40;;
43744;SDS011;29359;53.048;8.732;2023-09-12T02:46:19;52.45;;;33.97;;
43744;SDS011;29359;53.048;8.732;2023-09-12T02:48:21;49.40;;;33.50;;
43744;SDS011;29359;53.048;8.732;2023-09-12T02:50:23;48.20;;;33.20;;
43744;SDS011;29359;53.048;8.732;2023-09-12T02:52:25;48.42;;;34.83;;
43744;SDS011;29359;53.048;8.732;2023-09-12T02:54:27;52.95;;;35.00;;
43744;SDS011;29359;53.048;8.732;2023-09-12T02:56:28;50.90;;;34.67;;
43744;SDS011;29359;53.048;8.732;2023-09-12T02:58:32;50.22;;;36.35;;
43744;SDS011;29359;53.048;8.732;2023-09-12T03:00:37;52.17;;;36.33;;
43744;SDS011;29359;53.048;8.732;2023-09-12T03:02:41;52.57;;;36.50;;
43744;SDS011;29359;53.048;8.732;2023-09-12T03:04:43;55.35;;;36.42;;
43744;SDS011;29359;53.048;8.732;2023-09-12T03:06:45;58.00;;;36.90;;
43744;SDS011;29359;53.048;8.732;2023-09-12T03:08:49;52.47;;;36.05;;
43744;SDS011;29359;53.048;8.732;2023-09-12T03:10:55;55.85;;;35.63;;
43744;SDS011;29359;53.048;8.732;2023-09-12T03:12:57;53.65;;;36.22;;
43744;SDS011;29359;53.048;8.732;2023-09-12T03:14:59;53.45;;;36.72;;
43744;SDS011;29359;53.048;8.732;2023-09-12T03:17:02;50.67;;;36.30;;
43744;SDS011;29359;53.048;8.732;2023-09-12T03:19:05;47.03;;;35.50;;
43744;SDS011;29359;53.048;8.732;2023-09-12T03:21:06;52.30;;;37.03;;
43744;SDS011;29359;53.048;8.732;2023-09-12T03:23:08;53.58;;;36.63;;
43744;SDS011;29359;53.048;8.732;2023-09-12T03:25:10;50.65;;;36.15;;
43744;SDS011;29359;53.048;8.732;2023-09-12T03:27:12;54.17;;;36.55;;
43744;SDS011;29359;53.048;8.732;2023-09-12T03:29:14;54.35;;;37.22;;
43744;SDS011;29359;53.048;8.732;2023-09-12T03:31:15;48.70;;;35.92;;
43744;SDS011;29359;53.048;8.732;2023-09-12T03:33:17;50.10;;;34.95;;
43744;SDS011;29359;53.048;8.732;2023-09-12T03:35:19;56.22;;;36.08;;
43744;SDS011;29359;53.048;8.732;2023-09-12T03:37:21;47.78;;;34.97;;
43744;SDS011;29359;53.048;8.732;2023-09-12T03:39:23;44.85;;;32.67;;
43744;SDS011;29359;53.048;8.732;2023-09-12T03:41:25;50.20;;;33.05;;
43744;SDS011;29359;53.048;8.732;2023-09-12T03:43:27;47.92;;;33.97;;
43744;SDS011;29359;53.048;8.732;2023-09-12T03:45:29;46.33;;;33.92;;
43744;SDS011;29359;53.048;8.732;2023-09-12T03:47:31;45.45;;;33.25;;
43744;SDS011;29359;53.048;8.732;2023-09-12T03:49:33;48.67;;;33.83;;
43744;SDS011;29359;53.048;8.732;2023-09-12T03:51:34;45.80;;;32.22;;
43744;SDS011;29359;53.048;8.732;2023-09-12T03:53:36;47.03;;;32.40;;
43744;SDS011;29359;53.048;8.732;2023-09-12T03:55:38;49.40;;;33.05;;
43744;SDS011;29359;53.048;8.732;2023-09-12T03:57:40;43.08;;;32.42;;
43744;SDS011;29359;53.048;8.732;2023-09-12T03:59:42;42.17;;;31.67;;
43744;SDS011;29359;53.048;8.732;2023-09-12T04:01:43;45.38;;;32.70;;
43744;SDS011;29359;53.048;8.732;2023-09-12T04:03:45;42.53;;;31.83;;
43744;SDS011;29359;53.048;8.732;2023-09-12T04:05:50;43.80;;;30.88;;
43744;SDS011;29359;53.048;8.732;2023-09-12T04:07:52;46.03;;;33.50;;
43744;SDS011;29359;53.048;8.732;2023-09-12T04:09:54;47.05;;;33.53;;
43744;SDS011;29359;53.048;8.732;2023-09-12T04:11:55;48.50;;;33.58;;
43744;SDS011;29359;53.048;8.732;2023-09-12T04:13:57;48.72;;;33.08;;
43744;SDS011;29359;53.048;8.732;2023-09-12T04:15:59;45.50;;;32.28;;
43744;SDS011;29359;53.048;8.732;2023-09-12T04:18:01;48.83;;;34.33;;
43744;SDS011;29359;53.048;8.732;2023-09-12T04:20:03;49.85;;;33.53;;
43744;SDS011;29359;53.048;8.732;2023-09-12T04:22:08;47.95;;;33.53;;
43744;SDS011;29359;53.048;8.732;2023-09-12T04:24:09;49.53;;;31.33;;
43744;SDS011;29359;53.048;8.732;2023-09-12T04:26:12;40.63;;;29.85;;
43744;SDS011;29359;53.048;8.732;2023-09-12T04:28:14;49.78;;;33.55;;
43744;SDS011;29359;53.048;8.732;2023-09-12T04:30:15;45.83;;;32.08;;
43744;SDS011;29359;53.048;8.732;2023-09-12T04:32:20;49.10;;;33.67;;
43744;SDS011;29359;53.048;8.732;2023-09-12T04:34:25;40.80;;;31.63;;
43744;SDS011;29359;53.048;8.732;2023-09-12T04:36:27;39.85;;;27.83;;
43744;SDS011;29359;53.048;8.732;2023-09-12T04:38:29;48.17;;;32.65;;
43744;SDS011;29359;53.048;8.732;2023-09-12T04:40:31;41.10;;;29.17;;
43744;SDS011;29359;53.048;8.732;2023-09-12T04:42:33;45.53;;;30.27;;
43744;SDS011;29359;53.048;8.732;2023-09-12T04:44:35;39.45;;;29.27;;
43744;SDS011;29359;53.048;8.732;2023-09-12T04:46:37;32.33;;;25.45;;
43744;SDS011;29359;53.048;8.732;2023-09-12T04:48:41;43.35;;;31.63;;
43744;SDS011;29359;53.048;8.732;2023-09-12T04:50:45;42.10;;;31.67;;
43744;SDS011;29359;53.048;8.732;2023-09-12T04:52:57;40.55;;;31.17;;
43744;SDS011;29359;53.048;8.732;2023-09-12T04:55:51;45.33;;;31.45;;
43744;SDS011;29359;53.048;8.732;2023-09-12T04:57:54;44.13;;;32.33;;
43744;SDS011;29359;53.048;8.732;2023-09-12T04:59:56;54.53;;;33.33;;
43744;SDS011;29359;53.048;8.732;2023-09-12T05:01:59;44.95;;;32.58;;
43744;SDS011;29359;53.048;8.732;2023-09-12T05:04:01;44.33;;;33.88;;
43744;SDS011;29359;53.048;8.732;2023-09-12T05:06:04;50.25;;;35.38;;
43744;SDS011;29359;53.048;8.732;2023-09-12T05:08:06;48.33;;;34.90;;
43744;SDS011;29359;53.048;8.732;2023-09-12T05:10:10;44.00;;;32.30;;
43744;SDS011;29359;53.048;8.732;2023-09-12T05:12:12;43.42;;;32.20;;
43744;SDS011;29359;53.048;8.732;2023-09-12T05:14:15;46.58;;;33.58;;
43744;SDS011;29359;53.048;8.732;2023-09-12T05:16:17;48.85;;;36.10;;
43744;SDS011;29359;53.048;8.732;2023-09-12T05:18:19;46.33;;;33.53;;
43744;SDS011;29359;53.048;8.732;2023-09-12T05:20:21;49.80;;;33.47;;
43744;SDS011;29359;53.048;8.732;2023-09-12T05:22:23;48.33;;;32.53;;
43744;SDS011;29359;53.048;8.732;2023-09-12T05:24:24;39.05;;;29.80;;
43744;SDS011;29359;53.048;8.732;2023-09-12T05:26:26;41.67;;;29.20;;
43744;SDS011;29359;53.048;8.732;2023-09-12T05:28:28;49.83;;;35.17;;
43744;SDS011;29359;53.048;8.732;2023-09-12T05:30:30;48.00;;;34.25;;
43744;SDS011;29359;53.048;8.732;2023-09-12T05:34:50;46.70;;;33.83;;
43744;SDS011;29359;53.048;8.732;2023-09-12T05:37:00;48.65;;;33.92;;
43744;SDS011;29359;53.048;8.732;2023-09-12T05:39:02;48.25;;;33.75;;
43744;SDS011;29359;53.048;8.732;2023-09-12T05:41:05;48.05;;;33.63;;
43744;SDS011;29359;53.048;8.732;2023-09-12T05:43:07;49.35;;;34.83;;
43744;SDS011;29359;53.048;8.732;2023-09-12T05:45:09;50.35;;;35.13;;
43744;SDS011;29359;53.048;8.732;2023-09-12T05:47:12;51.88;;;34.17;;
43744;SDS011;29359;53.048;8.732;2023-09-12T05:49:14;42.88;;;31.90;;
43744;SDS011;29359;53.048;8.732;2023-09-12T05:51:16;48.20;;;33.50;;
43744;SDS011;29359;53.048;8.732;2023-09-12T05:53:18;44.17;;;31.80;;
43744;SDS011;29359;53.048;8.732;2023-09-12T05:55:19;42.83;;;28.98;;
43744;SDS011;29359;53.048;8.732;2023-09-12T05:57:21;41.47;;;30.25;;
43744;SDS011;29359;53.048;8.732;2023-09-12T05:59:23;46.28;;;35.03;;
43744;SDS011;29359;53.048;8.732;2023-09-12T06:01:25;48.90;;;33.78;;
43744;SDS011;29359;53.048;8.732;2023-09-12T06:03:29;45.55;;;29.88;;
43744;SDS011;29359;53.048;8.732;2023-09-12T06:05:42;45.88;;;33.58;;
43744;SDS011;29359;53.048;8.732;2023-09-12T06:07:44;46.00;;;32.95;;
43744;SDS011;29359;53.048;8.732;2023-09-12T06:09:46;43.92;;;31.33;;
43744;SDS011;29359;53.048;8.732;2023-09-12T06:11:48;50.60;;;34.38;;
43744;SDS011;29359;53.048;8.732;2023-09-12T06:13:50;44.15;;;32.92;;
43744;SDS011;29359;53.048;8.732;2023-09-12T06:15:52;37.78;;;29.38;;
43744;SDS011;29359;53.048;8.732;2023-09-12T06:17:53;39.45;;;28.00;;
43744;SDS011;29359;53.048;8.732;2023-09-12T06:19:56;38.38;;;29.25;;
43744;SDS011;29359;53.048;8.732;2023-09-12T06:21:58;45.03;;;32.83;;
43744;SDS011;29359;53.048;8.732;2023-09-12T06:24:10;46.75;;;33.05;;
43744;SDS011;29359;53.048;8.732;2023-09-12T06:26:20;39.33;;;30.17;;
43744;SDS011;29359;53.048;8.732;2023-09-12T06:28:29;42.70;;;31.75;;
43744;SDS011;29359;53.048;8.732;2023-09-12T06:30:32;49.40;;;33.80;;
43744;SDS011;29359;53.048;8.732;2023-09-12T06:32:33;45.03;;;32.10;;
43744;SDS011;29359;53.048;8.732;2023-09-12T06:34:36;43.58;;;31.15;;
43744;SDS011;29359;53.048;8.732;2023-09-12T06:36:38;45.55;;;33.47;;
43744;SDS011;29359;53.048;8.732;2023-09-12T06:38:40;44.67;;;31.67;;
43744;SDS011;29359;53.048;8.732;2023-09-12T06:40:42;43.80;;;30.92;;
43744;SDS011;29359;53.048;8.732;2023-09-12T06:42:44;46.30;;;30.58;;
43744;SDS011;29359;53.048;8.732;2023-09-12T06:44:46;43.80;;;32.35;;
43744;SDS011;29359;53.048;8.732;2023-09-12T06:46:48;50.95;;;35.95;;
43744;SDS011;29359;53.048;8.732;2023-09-12T06:48:50;49.40;;;32.55;;
43744;SDS011;29359;53.048;8.732;2023-09-12T06:50:53;45.35;;;31.83;;
43744;SDS011;29359;53.048;8.732;2023-09-12T06:52:56;44.40;;;33.28;;
43744;SDS011;29359;53.048;8.732;2023-09-12T06:54:57;47.17;;;33.85;;
43744;SDS011;29359;53.048;8.732;2023-09-12T06:56:59;47.97;;;33.85;;
43744;SDS011;29359;53.048;8.732;2023-09-12T06:59:01;50.65;;;33.63;;
43744;SDS011;29359;53.048;8.732;2023-09-12T07:01:04;50.15;;;35.63;;
43744;SDS011;29359;53.048;8.732;2023-09-12T07:03:07;50.67;;;35.47;;
43744;SDS011;29359;53.048;8.732;2023-09-12T07:05:09;47.53;;;35.08;;
43744;SDS011;29359;53.048;8.732;2023-09-12T07:07:11;47.08;;;33.35;;
43744;SDS011;29359;53.048;8.732;2023-09-12T07:09:13;51.55;;;35.05;;
43744;SDS011;29359;53.048;8.732;2023-09-12T07:11:16;48.65;;;35.08;;
43744;SDS011;29359;53.048;8.732;2023-09-12T07:13:18;45.75;;;33.95;;
43744;SDS011;29359;53.048;8.732;2023-09-12T07:15:19;45.33;;;32.88;;
43744;SDS011;29359;53.048;8.732;2023-09-12T07:17:21;44.97;;;33.15;;
43744;SDS011;29359;53.048;8.732;2023-09-12T07:19:23;43.45;;;32.90;;
43744;SDS011;29359;53.048;8.732;2023-09-12T07:21:25;44.50;;;32.20;;
43744;SDS011;29359;53.048;8.732;2023-09-12T07:23:27;45.00;;;32.78;;
43744;SDS011;29359;53.048;8.732;2023-09-12T07:26:11;45.50;;;32.65;;
43744;SDS011;29359;53.048;8.732;2023-09-12T07:28:58;46.70;;;30.77;;
43744;SDS011;29359;53.048;8.732;2023-09-12T07:31:03;43.15;;;30.58;;
43744;SDS011;29359;53.048;8.732;2023-09-12T07:33:05;44.55;;;30.80;;
43744;SDS011;29359;53.048;8.732;2023-09-12T07:35:07;42.95;;;30.33;;
43744;SDS011;29359;53.048;8.732;2023-09-12T07:37:09;42.92;;;29.38;;
43744;SDS011;29359;53.048;8.732;2023-09-12T07:39:11;42.15;;;31.35;;
43744;SDS011;29359;53.048;8.732;2023-09-12T07:41:13;39.28;;;29.27;;
43744;SDS011;29359;53.048;8.732;2023-09-12T07:43:14;39.40;;;27.80;;
43744;SDS011;29359;53.048;8.732;2023-09-12T07:45:16;39.67;;;29.38;;
43744;SDS011;29359;53.048;8.732;2023-09-12T07:47:18;39.33;;;29.42;;
43744;SDS011;29359;53.048;8.732;2023-09-12T07:49:20;43.05;;;30.90;;
43744;SDS011;29359;53.048;8.732;2023-09-12T07:51:22;42.03;;;31.25;;
43744;SDS011;29359;53.048;8.732;2023-09-12T07:53:24;38.65;;;30.17;;
43744;SDS011;29359;53.048;8.732;2023-09-12T07:55:26;39.22;;;29.33;;
43744;SDS011;29359;53.048;8.732;2023-09-12T07:57:32;36.63;;;30.25;;
43744;SDS011;29359;53.048;8.732;2023-09-12T07:59:34;41.53;;;27.90;;
43744;SDS011;29359;53.048;8.732;2023-09-12T08:01:36;35.22;;;28.00;;
43744;SDS011;29359;53.048;8.732;2023-09-12T08:03:39;37.53;;;27.50;;
43744;SDS011;29359;53.048;8.732;2023-09-12T08:05:42;34.58;;;27.48;;
43744;SDS011;29359;53.048;8.732;2023-09-12T08:07:44;35.00;;;26.88;;
43744;SDS011;29359;53.048;8.732;2023-09-12T08:09:49;37.60;;;26.77;;
43744;SDS011;29359;53.048;8.732;2023-09-12T08:11:53;36.42;;;26.45;;
43744;SDS011;29359;53.048;8.732;2023-09-12T08:13:54;34.45;;;24.02;;
43744;SDS011;29359;53.048;8.732;2023-09-12T08:15:58;28.92;;;23.20;;
43744;SDS011;29359;53.048;8.732;2023-09-12T08:18:01;25.88;;;21.92;;
43744;SDS011;29359;53.048;8.732;2023-09-12T08:20:02;32.03;;;23.05;;
43744;SDS011;29359;53.048;8.732;2023-09-12T08:22:05;26.58;;;22.42;;
43744;SDS011;29359;53.048;8.732;2023-09-12T08:24:07;27.88;;;23.65;;
43744;SDS011;29359;53.048;8.732;2023-09-12T08:26:10;29.02;;;23.75;;
43744;SDS011;29359;53.048;8.732;2023-09-12T08:28:12;27.60;;;24.35;;
43744;SDS011;29359;53.048;8.732;2023-09-12T08:30:15;28.15;;;23.50;;
43744;SDS011;29359;53.048;8.732;2023-09-12T08:32:18;30.15;;;21.60;;
43744;SDS011;29359;53.048;8.732;2023-09-12T08:34:20;28.30;;;22.02;;
43744;SDS011;29359;53.048;8.732;2023-09-12T08:36:22;28.23;;;21.50;;
43744;SDS011;29359;53.048;8.732;2023-09-12T08:38:24;29.08;;;20.83;;
43744;SDS011;29359;53.048;8.732;2023-09-12T08:40:26;25.70;;;21.05;;
43744;SDS011;29359;53.048;8.732;2023-09-12T08:42:28;24.27;;;20.77;;
43744;SDS011;29359;53.048;8.732;2023-09-12T08:44:32;24.85;;;21.45;;
43744;SDS011;29359;53.048;8.732;2023-09-12T08:46:34;26.77;;;21.80;;
43744;SDS011;29359;53.048;8.732;2023-09-12T08:48:36;30.35;;;22.60;;
43744;SDS011;29359;53.048;8.732;2023-09-12T08:50:39;27.08;;;21.67;;
43744;SDS011;29359;53.048;8.732;2023-09-12T08:52:43;26.85;;;22.63;;
43744;SDS011;29359;53.048;8.732;2023-09-12T08:55:06;26.10;;;22.20;;
43744;SDS011;29359;53.048;8.732;2023-09-12T08:57:08;26.85;;;22.45;;
43744;SDS011;29359;53.048;8.732;2023-09-12T08:59:12;27.20;;;22.27;;
43744;SDS011;29359;53.048;8.732;2023-09-12T09:01:14;27.17;;;21.65;;
43744;SDS011;29359;53.048;8.732;2023-09-12T09:03:19;29.00;;;21.77;;
43744;SDS011;29359;53.048;8.732;2023-09-12T09:05:23;24.67;;;22.10;;
43744;SDS011;29359;53.048;8.732;2023-09-12T09:07:26;27.80;;;21.77;;
43744;SDS011;29359;53.048;8.732;2023-09-12T09:09:30;25.95;;;21.88;;
43744;SDS011;29359;53.048;8.732;2023-09-12T09:11:32;26.63;;;21.63;;
43744;SDS011;29359;53.048;8.732;2023-09-12T09:13:35;26.13;;;21.65;;
43744;SDS011;29359;53.048;8.732;2023-09-12T09:15:37;28.95;;;22.17;;
43744;SDS011;29359;53.048;8.732;2023-09-12T09:17:43;27.75;;;21.58;;
43744;SDS011;29359;53.048;8.732;2023-09-12T09:19:47;28.25;;;21.42;;
43744;SDS011;29359;53.048;8.732;2023-09-12T09:21:49;27.35;;;21.95;;
43744;SDS011;29359;53.048;8.732;2023-09-12T09:23:52;26.73;;;21.88;;
43744;SDS011;29359;53.048;8.732;2023-09-12T09:25:55;30.90;;;22.02;;
43744;SDS011;29359;53.048;8.732;2023-09-12T09:27:57;26.05;;;22.27;;
43744;SDS011;29359;53.048;8.732;2023-09-12T09:29:59;30.80;;;23.08;;
43744;SDS011;29359;53.048;8.732;2023-09-12T09:32:01;26.45;;;22.80;;
43744;SDS011;29359;53.048;8.732;2023-09-12T09:34:03;29.27;;;23.50;;
43744;SDS011;29359;53.048;8.732;2023-09-12T09:36:06;28.67;;;21.95;;
43744;SDS011;29359;53.048;8.732;2023-09-12T09:38:09;25.27;;;21.45;;
43744;SDS011;29359;53.048;8.732;2023-09-12T09:40:11;26.80;;;22.60;;
43744;SDS011;29359;53.048;8.732;2023-09-12T09:42:13;27.90;;;22.58;;
43744;SDS011;29359;53.048;8.732;2023-09-12T09:44:15;27.10;;;21.90;;
43744;SDS011;29359;53.048;8.732;2023-09-12T09:46:18;32.78;;;22.40;;
43744;SDS011;29359;53.048;8.732;2023-09-12T09:48:21;27.60;;;21.10;;
43744;SDS011;29359;53.048;8.732;2023-09-12T09:50:24;25.98;;;21.60;;
43744;SDS011;29359;53.048;8.732;2023-09-12T09:52:26;31.85;;;21.60;;
43744;SDS011;29359;53.048;8.732;2023-09-12T09:54:29;31.35;;;23.02;;
43744;SDS011;29359;53.048;8.732;2023-09-12T09:56:31;27.38;;;22.45;;
43744;SDS011;29359;53.048;8.732;2023-09-12T09:58:33;26.55;;;19.98;;
43744;SDS011;29359;53.048;8.732;2023-09-12T10:00:36;29.13;;;20.42;;
43744;SDS011;29359;53.048;8.732;2023-09-12T10:02:46;31.05;;;20.77;;
43744;SDS011;29359;53.048;8.732;2023-09-12T10:05:37;25.02;;;20.38;;
43744;SDS011;29359;53.048;8.732;2023-09-12T10:07:58;26.77;;;20.33;;
43744;SDS011;29359;53.048;8.732;2023-09-12T10:10:04;26.20;;;20.92;;
43744;SDS011;29359;53.048;8.732;2023-09-12T10:12:22;25.88;;;20.83;;
43744;SDS011;29359;53.048;8.732;2023-09-12T10:14:50;25.95;;;20.67;;
43744;SDS011;29359;53.048;8.732;2023-09-12T10:16:52;28.95;;;20.95;;
43744;SDS011;29359;53.048;8.732;2023-09-12T10:19:15;22.33;;;19.85;;
43744;SDS011;29359;53.048;8.732;2023-09-12T10:21:20;26.65;;;20.77;;
43744;SDS011;29359;53.048;8.732;2023-09-12T10:23:30;23.90;;;19.73;;
43744;SDS011;29359;53.048;8.732;2023-09-12T10:25:39;26.52;;;20.25;;
43744;SDS011;29359;53.048;8.732;2023-09-12T10:27:41;22.20;;;19.90;;
43744;SDS011;29359;53.048;8.732;2023-09-12T10:29:43;35.97;;;20.35;;
43744;SDS011;29359;53.048;8.732;2023-09-12T10:31:49;23.20;;;20.50;;
43744;SDS011;29359;53.048;8.732;2023-09-12T10:33:51;27.92;;;21.55;;
43744;SDS011;29359;53.048;8.732;2023-09-12T10:35:53;22.65;;;20.25;;
43744;SDS011;29359;53.048;8.732;2023-09-12T10:37:55;25.95;;;20.08;;
43744;SDS011;29359;53.048;8.732;2023-09-12T10:40:03;26.75;;;20.27;;
43744;SDS011;29359;53.048;8.732;2023-09-12T10:42:09;26.35;;;20.98;;
43744;SDS011;29359;53.048;8.732;2023-09-12T10:44:17;26.90;;;20.45;;
43744;SDS011;29359;53.048;8.732;2023-09-12T10:46:19;27.75;;;21.02;;
43744;SDS011;29359;53.048;8.732;2023-09-12T10:48:22;28.40;;;20.98;;
43744;SDS011;29359;53.048;8.732;2023-09-12T10:50:24;23.23;;;20.45;;
43744;SDS011;29359;53.048;8.732;2023-09-12T10:52:27;23.38;;;20.48;;
43744;SDS011;29359;53.048;8.732;2023-09-12T10:54:36;24.85;;;21.17;;
43744;SDS011;29359;53.048;8.732;2023-09-12T10:56:39;26.98;;;21.20;;
43744;SDS011;29359;53.048;8.732;2023-09-12T11:01:26;23.65;;;19.75;;
43744;SDS011;29359;53.048;8.732;2023-09-12T11:09:39;26.75;;;21.75;;
43744;SDS011;29359;53.048;8.732;2023-09-12T11:11:45;27.25;;;22.05;;
43744;SDS011;29359;53.048;8.732;2023-09-12T11:14:03;25.67;;;21.90;;
43744;SDS011;29359;53.048;8.732;2023-09-12T11:16:15;24.25;;;21.65;;
43744;SDS011;29359;53.048;8.732;2023-09-12T11:18:19;26.33;;;22.08;;
43744;SDS011;29359;53.048;8.732;2023-09-12T11:20:21;30.98;;;22.77;;
43744;SDS011;29359;53.048;8.732;2023-09-12T11:22:26;30.35;;;22.90;;
43744;SDS011;29359;53.048;8.732;2023-09-12T11:24:33;29.77;;;22.92;;
43744;SDS011;29359;53.048;8.732;2023-09-12T11:26:55;28.00;;;23.02;;
43744;SDS011;29359;53.048;8.732;2023-09-12T11:29:34;24.98;;;22.20;;
43744;SDS011;29359;53.048;8.732;2023-09-12T11:31:36;29.15;;;22.20;;
43744;SDS011;29359;53.048;8.732;2023-09-12T11:33:43;30.98;;;22.83;;
43744;SDS011;29359;53.048;8.732;2023-09-12T11:35:45;30.92;;;23.05;;
43744;SDS011;29359;53.048;8.732;2023-09-12T11:37:48;26.08;;;22.30;;
43744;SDS011;29359;53.048;8.732;2023-09-12T11:39:51;23.27;;;20.85;;
43744;SDS011;29359;53.048;8.732;2023-09-12T11:41:55;26.75;;;21.38;;
43744;SDS011;29359;53.048;8.732;2023-09-12T11:43:57;27.70;;;21.55;;
43744;SDS011;29359;53.048;8.732;2023-09-12T11:46:00;28.20;;;21.80;;
43744;SDS011;29359;53.048;8.732;2023-09-12T11:48:03;23.60;;;19.77;;
43744;SDS011;29359;53.048;8.732;2023-09-12T11:50:05;23.27;;;19.05;;
43744;SDS011;29359;53.048;8.732;2023-09-12T11:52:08;23.45;;;19.58;;
43744;SDS011;29359;53.048;8.732;2023-09-12T11:54:14;21.70;;;18.45;;
43744;SDS011;29359;53.048;8.732;2023-09-12T11:56:19;23.17;;;18.42;;
43744;SDS011;29359;53.048;8.732;2023-09-12T11:58:22;23.80;;;19.02;;
43744;SDS011;29359;53.048;8.732;2023-09-12T12:00:25;22.55;;;17.15;;
43744;SDS011;29359;53.048;8.732;2023-09-12T12:02:28;19.60;;;17.35;;
43744;SDS011;29359;53.048;8.732;2023-09-12T12:04:30;19.85;;;16.83;;
43744;SDS011;29359;53.048;8.732;2023-09-12T12:06:33;19.52;;;17.63;;
43744;SDS011;29359;53.048;8.732;2023-09-12T12:08:37;19.33;;;16.92;;
43744;SDS011;29359;53.048;8.732;2023-09-12T12:10:38;21.98;;;16.90;;
43744;SDS011;29359;53.048;8.732;2023-09-12T12:12:42;20.90;;;16.38;;
43744;SDS011;29359;53.048;8.732;2023-09-12T12:14:46;17.38;;;15.30;;
43744;SDS011;29359;53.048;8.732;2023-09-12T12:16:48;18.65;;;14.45;;
43744;SDS011;29359;53.048;8.732;2023-09-12T12:18:50;16.83;;;14.82;;
43744;SDS011;29359;53.048;8.732;2023-09-12T12:20:55;15.85;;;14.15;;
43744;SDS011;29359;53.048;8.732;2023-09-12T12:22:58;19.42;;;15.77;;
43744;SDS011;29359;53.048;8.732;2023-09-12T12:25:05;18.13;;;14.63;;
43744;SDS011;29359;53.048;8.732;2023-09-12T12:27:08;15.95;;;13.52;;
43744;SDS011;29359;53.048;8.732;2023-09-12T12:29:12;15.85;;;13.63;;